05/29 13:00 更新

3,000ftに雲が少し

地上風: 170°11kt

上空風(熊谷 13:40更新)
13,000ft: 320° 26kt
10,000ft: 290° 25kt
 7,000ft: 290° 17kt
 3,000ft: 230° 15kt

地上: 31℃
上空: 1.1℃

日没: 18:49

実況天気図


予想天気図


RJTJ 290400Z 17011KT 9999 FEW030 31/12 Q1004 RMK 1CU030 A2966=

GPV気象予報
気象庁
日本気象協会

太郎衛門橋テレメータ水位(11mでDZ冠水)

skydive.jp